sensor_id;sensor_type;location;lat;lon;timestamp;P1;durP1;ratioP1;P2;durP2;ratioP2
6531;SDS011;3299;42.004;24.868;2022-08-19T00:00:24;4.82;;;4.30;;
6531;SDS011;3299;42.004;24.868;2022-08-19T00:02:49;6.80;;;4.63;;
6531;SDS011;3299;42.004;24.868;2022-08-19T00:05:16;4.78;;;4.47;;
6531;SDS011;3299;42.004;24.868;2022-08-19T00:07:43;5.38;;;4.63;;
6531;SDS011;3299;42.004;24.868;2022-08-19T00:10:09;4.85;;;4.55;;
6531;SDS011;3299;42.004;24.868;2022-08-19T00:12:36;5.03;;;4.53;;
6531;SDS011;3299;42.004;24.868;2022-08-19T00:15:03;6.55;;;4.75;;
6531;SDS011;3299;42.004;24.868;2022-08-19T00:17:30;5.10;;;4.70;;
6531;SDS011;3299;42.004;24.868;2022-08-19T00:19:55;5.00;;;4.50;;
6531;SDS011;3299;42.004;24.868;2022-08-19T00:22:21;5.15;;;4.75;;
6531;SDS011;3299;42.004;24.868;2022-08-19T00:24:46;5.22;;;4.75;;
6531;SDS011;3299;42.004;24.868;2022-08-19T00:27:12;4.97;;;4.55;;
6531;SDS011;3299;42.004;24.868;2022-08-19T00:29:38;5.90;;;5.30;;
6531;SDS011;3299;42.004;24.868;2022-08-19T00:32:04;7.22;;;5.07;;
6531;SDS011;3299;42.004;24.868;2022-08-19T00:34:30;5.70;;;5.13;;
6531;SDS011;3299;42.004;24.868;2022-08-19T00:36:56;5.40;;;4.95;;
6531;SDS011;3299;42.004;24.868;2022-08-19T00:39:22;5.43;;;4.85;;
6531;SDS011;3299;42.004;24.868;2022-08-19T00:41:48;5.10;;;4.60;;
6531;SDS011;3299;42.004;24.868;2022-08-19T00:44:16;4.32;;;4.03;;
6531;SDS011;3299;42.004;24.868;2022-08-19T00:46:47;6.95;;;4.57;;
6531;SDS011;3299;42.004;24.868;2022-08-19T00:49:16;5.35;;;4.85;;
6531;SDS011;3299;42.004;24.868;2022-08-19T00:51:44;4.25;;;3.95;;
6531;SDS011;3299;42.004;24.868;2022-08-19T00:54:12;5.72;;;5.03;;
6531;SDS011;3299;42.004;24.868;2022-08-19T00:56:38;5.38;;;4.53;;
6531;SDS011;3299;42.004;24.868;2022-08-19T00:59:05;4.75;;;4.35;;
6531;SDS011;3299;42.004;24.868;2022-08-19T01:01:37;4.07;;;3.78;;
6531;SDS011;3299;42.004;24.868;2022-08-19T01:04:05;5.53;;;4.70;;
6531;SDS011;3299;42.004;24.868;2022-08-19T01:06:31;4.45;;;4.15;;
6531;SDS011;3299;42.004;24.868;2022-08-19T01:08:58;7.35;;;4.53;;
6531;SDS011;3299;42.004;24.868;2022-08-19T01:11:25;4.95;;;4.40;;
6531;SDS011;3299;42.004;24.868;2022-08-19T01:13:55;4.18;;;3.88;;
6531;SDS011;3299;42.004;24.868;2022-08-19T01:16:21;4.72;;;4.28;;
6531;SDS011;3299;42.004;24.868;2022-08-19T01:18:49;7.13;;;3.78;;
6531;SDS011;3299;42.004;24.868;2022-08-19T01:23:56;4.20;;;3.90;;
6531;SDS011;3299;42.004;24.868;2022-08-19T01:26:22;7.03;;;4.00;;
6531;SDS011;3299;42.004;24.868;2022-08-19T01:28:50;5.53;;;4.07;;
6531;SDS011;3299;42.004;24.868;2022-08-19T01:31:18;4.45;;;4.05;;
6531;SDS011;3299;42.004;24.868;2022-08-19T01:33:46;4.90;;;4.53;;
6531;SDS011;3299;42.004;24.868;2022-08-19T01:36:14;5.07;;;4.53;;
6531;SDS011;3299;42.004;24.868;2022-08-19T01:38:47;6.03;;;4.30;;
6531;SDS011;3299;42.004;24.868;2022-08-19T01:41:13;7.07;;;4.43;;
6531;SDS011;3299;42.004;24.868;2022-08-19T01:43:39;4.70;;;4.30;;
6531;SDS011;3299;42.004;24.868;2022-08-19T01:46:04;4.72;;;4.40;;
6531;SDS011;3299;42.004;24.868;2022-08-19T01:48:42;5.35;;;4.80;;
6531;SDS011;3299;42.004;24.868;2022-08-19T01:51:08;5.65;;;4.18;;
6531;SDS011;3299;42.004;24.868;2022-08-19T01:53:35;4.78;;;4.28;;
6531;SDS011;3299;42.004;24.868;2022-08-19T01:56:03;5.30;;;4.90;;
6531;SDS011;3299;42.004;24.868;2022-08-19T01:58:30;5.55;;;4.57;;
6531;SDS011;3299;42.004;24.868;2022-08-19T02:01:01;5.85;;;5.35;;
6531;SDS011;3299;42.004;24.868;2022-08-19T02:03:26;4.93;;;4.50;;
6531;SDS011;3299;42.004;24.868;2022-08-19T02:05:56;5.28;;;4.88;;
6531;SDS011;3299;42.004;24.868;2022-08-19T02:08:24;6.35;;;4.70;;
6531;SDS011;3299;42.004;24.868;2022-08-19T02:10:50;5.72;;;5.22;;
6531;SDS011;3299;42.004;24.868;2022-08-19T02:13:16;5.72;;;4.85;;
6531;SDS011;3299;42.004;24.868;2022-08-19T02:15:41;5.35;;;4.95;;
6531;SDS011;3299;42.004;24.868;2022-08-19T02:18:07;4.88;;;4.45;;
6531;SDS011;3299;42.004;24.868;2022-08-19T02:20:33;6.25;;;5.43;;
6531;SDS011;3299;42.004;24.868;2022-08-19T02:22:59;5.22;;;4.55;;
6531;SDS011;3299;42.004;24.868;2022-08-19T02:25:26;5.25;;;4.75;;
6531;SDS011;3299;42.004;24.868;2022-08-19T02:27:52;6.28;;;5.22;;
6531;SDS011;3299;42.004;24.868;2022-08-19T02:30:19;4.90;;;4.50;;
6531;SDS011;3299;42.004;24.868;2022-08-19T02:32:45;5.13;;;4.70;;
6531;SDS011;3299;42.004;24.868;2022-08-19T02:35:12;5.40;;;4.85;;
6531;SDS011;3299;42.004;24.868;2022-08-19T02:37:38;6.68;;;4.85;;
6531;SDS011;3299;42.004;24.868;2022-08-19T02:40:22;5.57;;;5.07;;
6531;SDS011;3299;42.004;24.868;2022-08-19T02:42:47;8.63;;;4.93;;
6531;SDS011;3299;42.004;24.868;2022-08-19T02:45:13;5.55;;;5.15;;
6531;SDS011;3299;42.004;24.868;2022-08-19T02:47:39;8.52;;;4.63;;
6531;SDS011;3299;42.004;24.868;2022-08-19T02:50:05;5.10;;;4.70;;
6531;SDS011;3299;42.004;24.868;2022-08-19T02:52:31;7.05;;;4.93;;
6531;SDS011;3299;42.004;24.868;2022-08-19T02:54:57;5.38;;;4.88;;
6531;SDS011;3299;42.004;24.868;2022-08-19T02:57:23;6.45;;;4.80;;
6531;SDS011;3299;42.004;24.868;2022-08-19T02:59:49;5.88;;;4.97;;
6531;SDS011;3299;42.004;24.868;2022-08-19T03:02:15;5.15;;;4.40;;
6531;SDS011;3299;42.004;24.868;2022-08-19T03:04:41;5.35;;;4.85;;
6531;SDS011;3299;42.004;24.868;2022-08-19T03:07:07;7.13;;;4.82;;
6531;SDS011;3299;42.004;24.868;2022-08-19T03:09:33;5.72;;;5.05;;
6531;SDS011;3299;42.004;24.868;2022-08-19T03:12:01;5.30;;;4.90;;
6531;SDS011;3299;42.004;24.868;2022-08-19T03:14:29;5.50;;;5.07;;
6531;SDS011;3299;42.004;24.868;2022-08-19T03:16:55;8.48;;;4.82;;
6531;SDS011;3299;42.004;24.868;2022-08-19T03:19:21;5.45;;;5.05;;
6531;SDS011;3299;42.004;24.868;2022-08-19T03:21:46;5.60;;;5.10;;
6531;SDS011;3299;42.004;24.868;2022-08-19T03:24:12;5.50;;;5.10;;
6531;SDS011;3299;42.004;24.868;2022-08-19T03:26:41;4.88;;;4.47;;
6531;SDS011;3299;42.004;24.868;2022-08-19T03:29:08;5.75;;;5.05;;
6531;SDS011;3299;42.004;24.868;2022-08-19T03:31:35;7.22;;;4.78;;
6531;SDS011;3299;42.004;24.868;2022-08-19T03:34:00;5.88;;;5.32;;
6531;SDS011;3299;42.004;24.868;2022-08-19T03:36:26;5.03;;;4.63;;
6531;SDS011;3299;42.004;24.868;2022-08-19T03:38:53;7.55;;;5.00;;
6531;SDS011;3299;42.004;24.868;2022-08-19T03:41:22;5.22;;;4.80;;
6531;SDS011;3299;42.004;24.868;2022-08-19T03:43:49;5.38;;;4.85;;
6531;SDS011;3299;42.004;24.868;2022-08-19T03:46:17;5.30;;;4.80;;
6531;SDS011;3299;42.004;24.868;2022-08-19T03:48:47;6.10;;;5.13;;
6531;SDS011;3299;42.004;24.868;2022-08-19T03:51:21;5.10;;;4.63;;
6531;SDS011;3299;42.004;24.868;2022-08-19T03:53:59;5.97;;;5.45;;
6531;SDS011;3299;42.004;24.868;2022-08-19T03:56:25;5.60;;;5.03;;
6531;SDS011;3299;42.004;24.868;2022-08-19T03:58:53;6.60;;;5.53;;
6531;SDS011;3299;42.004;24.868;2022-08-19T04:01:19;5.28;;;4.82;;
6531;SDS011;3299;42.004;24.868;2022-08-19T04:03:47;5.72;;;4.70;;
6531;SDS011;3299;42.004;24.868;2022-08-19T04:08:45;5.30;;;4.80;;
6531;SDS011;3299;42.004;24.868;2022-08-19T04:11:12;7.80;;;5.53;;
6531;SDS011;3299;42.004;24.868;2022-08-19T04:13:40;5.68;;;5.18;;
6531;SDS011;3299;42.004;24.868;2022-08-19T04:16:08;5.95;;;5.40;;
6531;SDS011;3299;42.004;24.868;2022-08-19T04:18:35;5.63;;;5.05;;
6531;SDS011;3299;42.004;24.868;2022-08-19T04:21:02;6.35;;;5.75;;
6531;SDS011;3299;42.004;24.868;2022-08-19T04:23:28;6.35;;;5.30;;
6531;SDS011;3299;42.004;24.868;2022-08-19T04:25:54;5.90;;;5.40;;
6531;SDS011;3299;42.004;24.868;2022-08-19T04:28:20;5.30;;;4.90;;
6531;SDS011;3299;42.004;24.868;2022-08-19T04:30:47;6.03;;;5.22;;
6531;SDS011;3299;42.004;24.868;2022-08-19T04:33:15;5.43;;;4.93;;
6531;SDS011;3299;42.004;24.868;2022-08-19T04:35:44;5.75;;;5.15;;
6531;SDS011;3299;42.004;24.868;2022-08-19T04:38:12;5.47;;;4.97;;
6531;SDS011;3299;42.004;24.868;2022-08-19T04:40:41;5.47;;;5.03;;
6531;SDS011;3299;42.004;24.868;2022-08-19T04:43:26;5.55;;;5.05;;
6531;SDS011;3299;42.004;24.868;2022-08-19T04:45:52;5.65;;;5.15;;
6531;SDS011;3299;42.004;24.868;2022-08-19T04:48:18;5.60;;;5.10;;
6531;SDS011;3299;42.004;24.868;2022-08-19T04:50:55;6.63;;;5.15;;
6531;SDS011;3299;42.004;24.868;2022-08-19T04:53:26;6.20;;;5.18;;
6531;SDS011;3299;42.004;24.868;2022-08-19T04:55:56;5.43;;;4.93;;
6531;SDS011;3299;42.004;24.868;2022-08-19T04:58:24;6.00;;;5.20;;
6531;SDS011;3299;42.004;24.868;2022-08-19T05:00:51;5.07;;;4.65;;
6531;SDS011;3299;42.004;24.868;2022-08-19T05:03:17;7.53;;;5.38;;
6531;SDS011;3299;42.004;24.868;2022-08-19T05:05:43;11.05;;;5.13;;
6531;SDS011;3299;42.004;24.868;2022-08-19T05:08:10;5.93;;;4.90;;
6531;SDS011;3299;42.004;24.868;2022-08-19T05:10:37;7.35;;;5.32;;
6531;SDS011;3299;42.004;24.868;2022-08-19T05:13:04;7.60;;;5.28;;
6531;SDS011;3299;42.004;24.868;2022-08-19T05:15:30;5.47;;;4.90;;
6531;SDS011;3299;42.004;24.868;2022-08-19T05:17:56;6.35;;;5.45;;
6531;SDS011;3299;42.004;24.868;2022-08-19T05:20:40;11.30;;;5.35;;
6531;SDS011;3299;42.004;24.868;2022-08-19T05:23:24;8.15;;;5.18;;
6531;SDS011;3299;42.004;24.868;2022-08-19T05:25:50;5.68;;;4.97;;
6531;SDS011;3299;42.004;24.868;2022-08-19T05:28:16;6.18;;;5.28;;
6531;SDS011;3299;42.004;24.868;2022-08-19T05:30:43;6.70;;;5.03;;
6531;SDS011;3299;42.004;24.868;2022-08-19T05:33:09;5.55;;;5.05;;
6531;SDS011;3299;42.004;24.868;2022-08-19T05:35:37;5.80;;;5.30;;
6531;SDS011;3299;42.004;24.868;2022-08-19T05:38:04;4.72;;;4.40;;
6531;SDS011;3299;42.004;24.868;2022-08-19T05:40:33;5.88;;;5.00;;
6531;SDS011;3299;42.004;24.868;2022-08-19T05:43:01;5.70;;;5.20;;
6531;SDS011;3299;42.004;24.868;2022-08-19T05:45:29;5.82;;;5.00;;
6531;SDS011;3299;42.004;24.868;2022-08-19T05:47:54;5.20;;;4.80;;
6531;SDS011;3299;42.004;24.868;2022-08-19T05:50:19;5.95;;;5.18;;
6531;SDS011;3299;42.004;24.868;2022-08-19T05:52:45;6.15;;;5.55;;
6531;SDS011;3299;42.004;24.868;2022-08-19T05:55:11;5.50;;;4.90;;
6531;SDS011;3299;42.004;24.868;2022-08-19T05:57:36;5.80;;;5.25;;
6531;SDS011;3299;42.004;24.868;2022-08-19T06:00:03;8.05;;;5.22;;
6531;SDS011;3299;42.004;24.868;2022-08-19T06:02:36;5.57;;;4.85;;
6531;SDS011;3299;42.004;24.868;2022-08-19T06:05:03;6.63;;;5.30;;
6531;SDS011;3299;42.004;24.868;2022-08-19T06:07:34;4.88;;;4.53;;
6531;SDS011;3299;42.004;24.868;2022-08-19T06:10:00;5.65;;;5.15;;
6531;SDS011;3299;42.004;24.868;2022-08-19T06:12:26;4.97;;;4.55;;
6531;SDS011;3299;42.004;24.868;2022-08-19T06:14:55;5.53;;;5.03;;
6531;SDS011;3299;42.004;24.868;2022-08-19T06:17:21;5.22;;;4.82;;
6531;SDS011;3299;42.004;24.868;2022-08-19T06:19:49;6.13;;;4.65;;
6531;SDS011;3299;42.004;24.868;2022-08-19T06:22:15;5.47;;;4.35;;
6531;SDS011;3299;42.004;24.868;2022-08-19T06:24:41;5.72;;;5.22;;
6531;SDS011;3299;42.004;24.868;2022-08-19T06:27:06;5.95;;;5.45;;
6531;SDS011;3299;42.004;24.868;2022-08-19T06:29:32;5.43;;;4.90;;
6531;SDS011;3299;42.004;24.868;2022-08-19T06:31:58;5.13;;;4.63;;
6531;SDS011;3299;42.004;24.868;2022-08-19T06:34:25;5.15;;;4.65;;
6531;SDS011;3299;42.004;24.868;2022-08-19T06:36:53;6.47;;;4.90;;
6531;SDS011;3299;42.004;24.868;2022-08-19T06:39:21;7.55;;;4.80;;
6531;SDS011;3299;42.004;24.868;2022-08-19T06:41:50;4.88;;;4.47;;
6531;SDS011;3299;42.004;24.868;2022-08-19T06:44:18;5.85;;;4.93;;
6531;SDS011;3299;42.004;24.868;2022-08-19T06:46:45;5.53;;;4.30;;
6531;SDS011;3299;42.004;24.868;2022-08-19T06:49:11;5.40;;;4.85;;
6531;SDS011;3299;42.004;24.868;2022-08-19T06:51:39;5.70;;;5.28;;
6531;SDS011;3299;42.004;24.868;2022-08-19T06:54:07;6.38;;;4.57;;
6531;SDS011;3299;42.004;24.868;2022-08-19T06:56:33;6.88;;;5.10;;
6531;SDS011;3299;42.004;24.868;2022-08-19T06:59:07;4.45;;;4.10;;
6531;SDS011;3299;42.004;24.868;2022-08-19T07:01:38;5.18;;;4.57;;
6531;SDS011;3299;42.004;24.868;2022-08-19T07:04:05;5.57;;;5.07;;
6531;SDS011;3299;42.004;24.868;2022-08-19T07:06:33;6.75;;;4.93;;
6531;SDS011;3299;42.004;24.868;2022-08-19T07:08:59;6.95;;;5.25;;
6531;SDS011;3299;42.004;24.868;2022-08-19T07:11:25;11.05;;;6.03;;
6531;SDS011;3299;42.004;24.868;2022-08-19T07:13:51;10.38;;;6.65;;
6531;SDS011;3299;42.004;24.868;2022-08-19T07:16:17;15.60;;;7.18;;
6531;SDS011;3299;42.004;24.868;2022-08-19T07:18:45;9.70;;;7.10;;
6531;SDS011;3299;42.004;24.868;2022-08-19T07:21:19;12.77;;;7.00;;
6531;SDS011;3299;42.004;24.868;2022-08-19T07:23:47;9.68;;;6.15;;
6531;SDS011;3299;42.004;24.868;2022-08-19T07:26:15;9.95;;;6.35;;
6531;SDS011;3299;42.004;24.868;2022-08-19T07:28:44;6.82;;;6.13;;
6531;SDS011;3299;42.004;24.868;2022-08-19T07:31:11;9.73;;;5.63;;
6531;SDS011;3299;42.004;24.868;2022-08-19T07:33:38;10.88;;;6.70;;
6531;SDS011;3299;42.004;24.868;2022-08-19T07:36:05;7.60;;;6.20;;
6531;SDS011;3299;42.004;24.868;2022-08-19T07:38:32;6.32;;;5.70;;
6531;SDS011;3299;42.004;24.868;2022-08-19T07:40:58;8.27;;;6.28;;
6531;SDS011;3299;42.004;24.868;2022-08-19T07:43:24;12.32;;;6.28;;
6531;SDS011;3299;42.004;24.868;2022-08-19T07:45:52;10.43;;;6.60;;
6531;SDS011;3299;42.004;24.868;2022-08-19T07:48:21;8.00;;;6.55;;
6531;SDS011;3299;42.004;24.868;2022-08-19T07:50:49;10.60;;;7.00;;
6531;SDS011;3299;42.004;24.868;2022-08-19T07:53:15;13.20;;;7.10;;
6531;SDS011;3299;42.004;24.868;2022-08-19T07:55:40;8.80;;;6.95;;
6531;SDS011;3299;42.004;24.868;2022-08-19T07:58:06;8.38;;;7.00;;
6531;SDS011;3299;42.004;24.868;2022-08-19T08:00:32;10.43;;;6.35;;
6531;SDS011;3299;42.004;24.868;2022-08-19T08:02:57;13.82;;;6.63;;
6531;SDS011;3299;42.004;24.868;2022-08-19T08:05:23;8.80;;;6.32;;
6531;SDS011;3299;42.004;24.868;2022-08-19T08:08:27;9.15;;;6.45;;
6531;SDS011;3299;42.004;24.868;2022-08-19T08:10:56;10.65;;;6.20;;
6531;SDS011;3299;42.004;24.868;2022-08-19T08:13:22;13.60;;;6.50;;
6531;SDS011;3299;42.004;24.868;2022-08-19T08:15:48;11.18;;;7.38;;
6531;SDS011;3299;42.004;24.868;2022-08-19T08:18:14;10.02;;;6.25;;
6531;SDS011;3299;42.004;24.868;2022-08-19T08:20:40;12.93;;;6.47;;
6531;SDS011;3299;42.004;24.868;2022-08-19T08:23:05;11.50;;;6.22;;
6531;SDS011;3299;42.004;24.868;2022-08-19T08:25:49;9.30;;;6.30;;
6531;SDS011;3299;42.004;24.868;2022-08-19T08:28:18;11.23;;;6.53;;
6531;SDS011;3299;42.004;24.868;2022-08-19T08:30:45;12.57;;;7.07;;
6531;SDS011;3299;42.004;24.868;2022-08-19T08:33:12;7.35;;;6.18;;
6531;SDS011;3299;42.004;24.868;2022-08-19T08:35:40;11.70;;;6.35;;
6531;SDS011;3299;42.004;24.868;2022-08-19T08:38:10;8.88;;;7.45;;
6531;SDS011;3299;42.004;24.868;2022-08-19T08:40:38;11.88;;;6.22;;
6531;SDS011;3299;42.004;24.868;2022-08-19T08:43:09;6.97;;;6.35;;
6531;SDS011;3299;42.004;24.868;2022-08-19T08:45:38;7.53;;;6.47;;
6531;SDS011;3299;42.004;24.868;2022-08-19T08:48:19;11.63;;;6.03;;
6531;SDS011;3299;42.004;24.868;2022-08-19T08:50:49;7.20;;;6.25;;
6531;SDS011;3299;42.004;24.868;2022-08-19T08:53:19;7.65;;;6.18;;
6531;SDS011;3299;42.004;24.868;2022-08-19T08:55:45;11.70;;;5.95;;
6531;SDS011;3299;42.004;24.868;2022-08-19T08:58:58;10.15;;;6.22;;
6531;SDS011;3299;42.004;24.868;2022-08-19T09:01:12;7.05;;;5.97;;
6531;SDS011;3299;42.004;24.868;2022-08-19T09:03:39;10.07;;;6.20;;
6531;SDS011;3299;42.004;24.868;2022-08-19T09:06:07;8.25;;;5.82;;
6531;SDS011;3299;42.004;24.868;2022-08-19T09:09:02;12.90;;;6.22;;
6531;SDS011;3299;42.004;24.868;2022-08-19T09:16:35;11.48;;;7.60;;
6531;SDS011;3299;42.004;24.868;2022-08-19T09:19:02;10.90;;;5.95;;
6531;SDS011;3299;42.004;24.868;2022-08-19T09:21:30;7.53;;;6.10;;
6531;SDS011;3299;42.004;24.868;2022-08-19T09:23:55;6.35;;;5.75;;
6531;SDS011;3299;42.004;24.868;2022-08-19T09:26:23;6.57;;;5.97;;
6531;SDS011;3299;42.004;24.868;2022-08-19T09:28:49;6.50;;;5.60;;
6531;SDS011;3299;42.004;24.868;2022-08-19T09:31:18;8.77;;;6.63;;
6531;SDS011;3299;42.004;24.868;2022-08-19T09:33:46;6.63;;;5.93;;
6531;SDS011;3299;42.004;24.868;2022-08-19T09:36:13;13.32;;;5.28;;
6531;SDS011;3299;42.004;24.868;2022-08-19T09:38:40;6.13;;;4.70;;
6531;SDS011;3299;42.004;24.868;2022-08-19T09:41:08;6.90;;;4.75;;
6531;SDS011;3299;42.004;24.868;2022-08-19T09:43:38;9.65;;;5.45;;
6531;SDS011;3299;42.004;24.868;2022-08-19T09:46:05;5.13;;;4.32;;
6531;SDS011;3299;42.004;24.868;2022-08-19T09:48:34;10.65;;;4.82;;
6531;SDS011;3299;42.004;24.868;2022-08-19T09:51:13;5.00;;;4.53;;
6531;SDS011;3299;42.004;24.868;2022-08-19T09:53:40;5.38;;;4.65;;
6531;SDS011;3299;42.004;24.868;2022-08-19T09:56:07;5.32;;;4.50;;
6531;SDS011;3299;42.004;24.868;2022-08-19T09:58:33;5.15;;;4.78;;
6531;SDS011;3299;42.004;24.868;2022-08-19T10:00:59;4.97;;;4.47;;
6531;SDS011;3299;42.004;24.868;2022-08-19T10:03:26;7.63;;;4.30;;
6531;SDS011;3299;42.004;24.868;2022-08-19T10:05:54;8.18;;;5.03;;
6531;SDS011;3299;42.004;24.868;2022-08-19T10:08:25;17.77;;;10.32;;
6531;SDS011;3299;42.004;24.868;2022-08-19T10:10:52;20.98;;;15.15;;
6531;SDS011;3299;42.004;24.868;2022-08-19T10:13:20;23.20;;;12.82;;
6531;SDS011;3299;42.004;24.868;2022-08-19T10:15:47;7.20;;;5.70;;
6531;SDS011;3299;42.004;24.868;2022-08-19T10:18:16;5.32;;;4.45;;
6531;SDS011;3299;42.004;24.868;2022-08-19T10:20:42;5.00;;;4.47;;
6531;SDS011;3299;42.004;24.868;2022-08-19T10:23:10;5.53;;;4.03;;
6531;SDS011;3299;42.004;24.868;2022-08-19T10:25:36;4.70;;;4.28;;
6531;SDS011;3299;42.004;24.868;2022-08-19T10:28:02;7.20;;;4.82;;
6531;SDS011;3299;42.004;24.868;2022-08-19T10:30:29;5.97;;;4.38;;
6531;SDS011;3299;42.004;24.868;2022-08-19T10:32:54;6.13;;;5.40;;
6531;SDS011;3299;42.004;24.868;2022-08-19T10:35:20;5.78;;;4.28;;
6531;SDS011;3299;42.004;24.868;2022-08-19T10:37:45;9.75;;;4.47;;
6531;SDS011;3299;42.004;24.868;2022-08-19T10:40:11;4.15;;;3.75;;
6531;SDS011;3299;42.004;24.868;2022-08-19T10:42:38;5.60;;;4.53;;
6531;SDS011;3299;42.004;24.868;2022-08-19T10:45:04;5.65;;;4.00;;
6531;SDS011;3299;42.004;24.868;2022-08-19T10:47:31;5.20;;;4.35;;
6531;SDS011;3299;42.004;24.868;2022-08-19T10:49:57;4.75;;;4.32;;
6531;SDS011;3299;42.004;24.868;2022-08-19T10:52:42;6.28;;;4.00;;
6531;SDS011;3299;42.004;24.868;2022-08-19T10:55:10;8.95;;;4.60;;
6531;SDS011;3299;42.004;24.868;2022-08-19T10:57:54;6.82;;;4.18;;
6531;SDS011;3299;42.004;24.868;2022-08-19T11:00:20;5.80;;;4.25;;
6531;SDS011;3299;42.004;24.868;2022-08-19T11:02:46;7.22;;;3.90;;
6531;SDS011;3299;42.004;24.868;2022-08-19T11:05:11;6.43;;;3.88;;
6531;SDS011;3299;42.004;24.868;2022-08-19T11:07:38;7.50;;;4.50;;
6531;SDS011;3299;42.004;24.868;2022-08-19T11:10:05;4.82;;;3.67;;
6531;SDS011;3299;42.004;24.868;2022-08-19T11:12:32;7.15;;;4.30;;
6531;SDS011;3299;42.004;24.868;2022-08-19T11:14:58;4.05;;;3.75;;
6531;SDS011;3299;42.004;24.868;2022-08-19T11:17:23;6.43;;;3.85;;
6531;SDS011;3299;42.004;24.868;2022-08-19T11:19:49;4.07;;;3.70;;
6531;SDS011;3299;42.004;24.868;2022-08-19T11:22:15;4.35;;;3.95;;
6531;SDS011;3299;42.004;24.868;2022-08-19T11:24:40;6.03;;;3.78;;
6531;SDS011;3299;42.004;24.868;2022-08-19T11:27:07;3.95;;;3.65;;
6531;SDS011;3299;42.004;24.868;2022-08-19T11:29:39;4.95;;;3.85;;
6531;SDS011;3299;42.004;24.868;2022-08-19T11:32:08;5.80;;;4.28;;
6531;SDS011;3299;42.004;24.868;2022-08-19T11:34:35;4.30;;;3.97;;
6531;SDS011;3299;42.004;24.868;2022-08-19T11:37:01;7.68;;;3.72;;
6531;SDS011;3299;42.004;24.868;2022-08-19T11:39:29;4.80;;;3.80;;
6531;SDS011;3299;42.004;24.868;2022-08-19T11:42:00;6.18;;;4.03;;
6531;SDS011;3299;42.004;24.868;2022-08-19T11:44:27;7.22;;;4.15;;
6531;SDS011;3299;42.004;24.868;2022-08-19T11:46:55;6.35;;;4.13;;
6531;SDS011;3299;42.004;24.868;2022-08-19T11:49:21;6.30;;;4.30;;
6531;SDS011;3299;42.004;24.868;2022-08-19T11:51:47;4.65;;;3.78;;
6531;SDS011;3299;42.004;24.868;2022-08-19T11:54:15;5.60;;;4.53;;
6531;SDS011;3299;42.004;24.868;2022-08-19T11:56:42;4.63;;;3.83;;
6531;SDS011;3299;42.004;24.868;2022-08-19T11:59:08;5.20;;;3.50;;
6531;SDS011;3299;42.004;24.868;2022-08-19T12:01:35;3.97;;;3.67;;
6531;SDS011;3299;42.004;24.868;2022-08-19T12:04:01;5.55;;;4.07;;
6531;SDS011;3299;42.004;24.868;2022-08-19T12:06:30;5.50;;;3.42;;
6531;SDS011;3299;42.004;24.868;2022-08-19T12:09:00;8.52;;;3.65;;
6531;SDS011;3299;42.004;24.868;2022-08-19T12:11:28;4.82;;;3.72;;
6531;SDS011;3299;42.004;24.868;2022-08-19T12:13:54;3.78;;;3.25;;
6531;SDS011;3299;42.004;24.868;2022-08-19T12:16:21;3.88;;;3.53;;
6531;SDS011;3299;42.004;24.868;2022-08-19T12:18:51;4.35;;;3.95;;
6531;SDS011;3299;42.004;24.868;2022-08-19T12:21:19;4.03;;;3.72;;
6531;SDS011;3299;42.004;24.868;2022-08-19T12:23:48;6.35;;;3.80;;
6531;SDS011;3299;42.004;24.868;2022-08-19T12:26:17;4.30;;;3.50;;
6531;SDS011;3299;42.004;24.868;2022-08-19T12:28:42;4.18;;;3.85;;
6531;SDS011;3299;42.004;24.868;2022-08-19T12:31:08;4.10;;;3.65;;
6531;SDS011;3299;42.004;24.868;2022-08-19T12:33:37;5.35;;;4.20;;
6531;SDS011;3299;42.004;24.868;2022-08-19T12:36:03;7.15;;;3.92;;
6531;SDS011;3299;42.004;24.868;2022-08-19T12:38:31;3.88;;;3.58;;
6531;SDS011;3299;42.004;24.868;2022-08-19T12:40:57;5.03;;;3.70;;
6531;SDS011;3299;42.004;24.868;2022-08-19T12:43:23;8.23;;;4.20;;
6531;SDS011;3299;42.004;24.868;2022-08-19T12:45:49;5.90;;;3.97;;
6531;SDS011;3299;42.004;24.868;2022-08-19T12:48:15;8.02;;;3.72;;
6531;SDS011;3299;42.004;24.868;2022-08-19T12:50:42;5.95;;;3.95;;
6531;SDS011;3299;42.004;24.868;2022-08-19T12:53:10;5.20;;;4.00;;
6531;SDS011;3299;42.004;24.868;2022-08-19T12:55:36;5.38;;;4.05;;
6531;SDS011;3299;42.004;24.868;2022-08-19T12:58:01;3.92;;;3.63;;
6531;SDS011;3299;42.004;24.868;2022-08-19T13:00:27;4.90;;;4.40;;
6531;SDS011;3299;42.004;24.868;2022-08-19T13:02:53;4.10;;;3.80;;
6531;SDS011;3299;42.004;24.868;2022-08-19T13:05:24;4.28;;;3.88;;
6531;SDS011;3299;42.004;24.868;2022-08-19T13:07:52;9.38;;;4.13;;
6531;SDS011;3299;42.004;24.868;2022-08-19T13:10:21;4.90;;;3.90;;
6531;SDS011;3299;42.004;24.868;2022-08-19T13:12:48;5.15;;;3.90;;
6531;SDS011;3299;42.004;24.868;2022-08-19T13:15:16;8.00;;;3.88;;
6531;SDS011;3299;42.004;24.868;2022-08-19T13:17:45;7.45;;;3.75;;
6531;SDS011;3299;42.004;24.868;2022-08-19T13:20:14;5.00;;;3.92;;
6531;SDS011;3299;42.004;24.868;2022-08-19T13:22:41;4.53;;;4.03;;
6531;SDS011;3299;42.004;24.868;2022-08-19T13:25:07;4.60;;;3.92;;
6531;SDS011;3299;42.004;24.868;2022-08-19T13:27:33;6.97;;;4.20;;
6531;SDS011;3299;42.004;24.868;2022-08-19T13:29:59;4.13;;;3.38;;
6531;SDS011;3299;42.004;24.868;2022-08-19T13:32:44;4.65;;;4.25;;
6531;SDS011;3299;42.004;24.868;2022-08-19T13:35:28;4.97;;;4.40;;
6531;SDS011;3299;42.004;24.868;2022-08-19T13:37:53;7.20;;;3.80;;
6531;SDS011;3299;42.004;24.868;2022-08-19T13:40:20;6.38;;;4.40;;
6531;SDS011;3299;42.004;24.868;2022-08-19T13:42:50;4.00;;;3.78;;
6531;SDS011;3299;42.004;24.868;2022-08-19T13:45:18;4.43;;;4.00;;
6531;SDS011;3299;42.004;24.868;2022-08-19T13:47:48;4.68;;;3.53;;
6531;SDS011;3299;42.004;24.868;2022-08-19T13:50:17;5.80;;;3.70;;
6531;SDS011;3299;42.004;24.868;2022-08-19T13:52:44;4.40;;;3.60;;
6531;SDS011;3299;42.004;24.868;2022-08-19T13:55:10;5.93;;;4.10;;
6531;SDS011;3299;42.004;24.868;2022-08-19T13:57:37;4.53;;;3.72;;
6531;SDS011;3299;42.004;24.868;2022-08-19T14:00:07;5.72;;;3.92;;
6531;SDS011;3299;42.004;24.868;2022-08-19T14:02:39;5.28;;;3.83;;
6531;SDS011;3299;42.004;24.868;2022-08-19T14:05:06;5.55;;;3.80;;
6531;SDS011;3299;42.004;24.868;2022-08-19T14:07:34;6.28;;;3.95;;
6531;SDS011;3299;42.004;24.868;2022-08-19T14:09:59;6.50;;;3.95;;
6531;SDS011;3299;42.004;24.868;2022-08-19T14:12:25;9.93;;;4.13;;
6531;SDS011;3299;42.004;24.868;2022-08-19T14:14:51;4.00;;;3.72;;
6531;SDS011;3299;42.004;24.868;2022-08-19T14:17:17;6.05;;;4.03;;
6531;SDS011;3299;42.004;24.868;2022-08-19T14:19:42;3.85;;;3.55;;
6531;SDS011;3299;42.004;24.868;2022-08-19T14:22:08;6.40;;;4.18;;
6531;SDS011;3299;42.004;24.868;2022-08-19T14:24:34;4.47;;;3.90;;
6531;SDS011;3299;42.004;24.868;2022-08-19T14:27:01;6.10;;;3.83;;
6531;SDS011;3299;42.004;24.868;2022-08-19T14:29:28;4.43;;;3.90;;
6531;SDS011;3299;42.004;24.868;2022-08-19T14:31:54;4.82;;;3.88;;
6531;SDS011;3299;42.004;24.868;2022-08-19T14:34:24;7.18;;;4.05;;
6531;SDS011;3299;42.004;24.868;2022-08-19T14:36:52;5.13;;;4.13;;
6531;SDS011;3299;42.004;24.868;2022-08-19T14:39:18;6.65;;;4.00;;
6531;SDS011;3299;42.004;24.868;2022-08-19T14:41:43;4.28;;;3.90;;
6531;SDS011;3299;42.004;24.868;2022-08-19T14:44:10;4.55;;;4.05;;
6531;SDS011;3299;42.004;24.868;2022-08-19T14:46:37;6.50;;;4.10;;
6531;SDS011;3299;42.004;24.868;2022-08-19T14:49:03;5.18;;;3.85;;
6531;SDS011;3299;42.004;24.868;2022-08-19T14:51:29;4.07;;;3.70;;
6531;SDS011;3299;42.004;24.868;2022-08-19T14:53:56;6.38;;;4.30;;
6531;SDS011;3299;42.004;24.868;2022-08-19T14:56:22;5.55;;;3.95;;
6531;SDS011;3299;42.004;24.868;2022-08-19T14:58:50;4.30;;;4.00;;
6531;SDS011;3299;42.004;24.868;2022-08-19T15:01:16;4.53;;;3.97;;
6531;SDS011;3299;42.004;24.868;2022-08-19T15:03:45;4.93;;;4.50;;
6531;SDS011;3299;42.004;24.868;2022-08-19T15:06:11;10.13;;;4.78;;
6531;SDS011;3299;42.004;24.868;2022-08-19T15:08:37;5.75;;;4.38;;
6531;SDS011;3299;42.004;24.868;2022-08-19T15:11:07;8.27;;;4.40;;
6531;SDS011;3299;42.004;24.868;2022-08-19T15:13:37;4.45;;;4.05;;